sensor_id;sensor_type;location;lat;lon;timestamp;P1;durP1;ratioP1;P2;durP2;ratioP2
44197;SDS011;30157;55.512;37.764;2023-03-14T00:01:22;3.75;;;1.60;;
44197;SDS011;30157;55.512;37.764;2023-03-14T00:03:49;4.20;;;1.70;;
44197;SDS011;30157;55.512;37.764;2023-03-14T00:06:15;2.85;;;1.67;;
44197;SDS011;30157;55.512;37.764;2023-03-14T00:08:41;2.58;;;1.42;;
44197;SDS011;30157;55.512;37.764;2023-03-14T00:11:10;2.80;;;1.40;;
44197;SDS011;30157;55.512;37.764;2023-03-14T00:13:37;1.95;;;1.38;;
44197;SDS011;30157;55.512;37.764;2023-03-14T00:16:04;3.15;;;1.35;;
44197;SDS011;30157;55.512;37.764;2023-03-14T00:18:32;4.82;;;1.42;;
44197;SDS011;30157;55.512;37.764;2023-03-14T00:20:58;3.22;;;1.50;;
44197;SDS011;30157;55.512;37.764;2023-03-14T00:23:25;3.58;;;1.30;;
44197;SDS011;30157;55.512;37.764;2023-03-14T00:25:52;3.03;;;1.52;;
44197;SDS011;30157;55.512;37.764;2023-03-14T00:28:18;3.95;;;1.27;;
44197;SDS011;30157;55.512;37.764;2023-03-14T00:30:46;3.42;;;1.60;;
44197;SDS011;30157;55.512;37.764;2023-03-14T00:33:12;3.10;;;1.40;;
44197;SDS011;30157;55.512;37.764;2023-03-14T00:35:40;3.22;;;1.30;;
44197;SDS011;30157;55.512;37.764;2023-03-14T00:38:06;2.67;;;1.40;;
44197;SDS011;30157;55.512;37.764;2023-03-14T00:40:31;2.67;;;1.40;;
44197;SDS011;30157;55.512;37.764;2023-03-14T00:42:57;3.00;;;1.38;;
44197;SDS011;30157;55.512;37.764;2023-03-14T00:45:22;4.38;;;1.50;;
44197;SDS011;30157;55.512;37.764;2023-03-14T00:47:48;2.50;;;1.55;;
44197;SDS011;30157;55.512;37.764;2023-03-14T00:50:14;4.47;;;1.50;;
44197;SDS011;30157;55.512;37.764;2023-03-14T00:52:39;3.83;;;1.25;;
44197;SDS011;30157;55.512;37.764;2023-03-14T00:55:05;4.60;;;1.52;;
44197;SDS011;30157;55.512;37.764;2023-03-14T00:57:31;4.45;;;1.70;;
44197;SDS011;30157;55.512;37.764;2023-03-14T00:59:57;4.60;;;1.63;;
44197;SDS011;30157;55.512;37.764;2023-03-14T01:02:22;2.65;;;1.60;;
44197;SDS011;30157;55.512;37.764;2023-03-14T01:04:48;3.20;;;1.65;;
44197;SDS011;30157;55.512;37.764;2023-03-14T01:07:14;5.25;;;1.88;;
44197;SDS011;30157;55.512;37.764;2023-03-14T01:09:41;2.92;;;1.70;;
44197;SDS011;30157;55.512;37.764;2023-03-14T01:12:07;5.50;;;2.40;;
44197;SDS011;30157;55.512;37.764;2023-03-14T01:14:33;4.05;;;2.05;;
44197;SDS011;30157;55.512;37.764;2023-03-14T01:16:59;4.03;;;1.80;;
44197;SDS011;30157;55.512;37.764;2023-03-14T01:19:27;4.32;;;2.20;;
44197;SDS011;30157;55.512;37.764;2023-03-14T01:21:53;4.97;;;2.25;;
44197;SDS011;30157;55.512;37.764;2023-03-14T01:24:19;3.58;;;1.95;;
44197;SDS011;30157;55.512;37.764;2023-03-14T01:26:45;5.18;;;2.33;;
44197;SDS011;30157;55.512;37.764;2023-03-14T01:29:11;3.97;;;2.38;;
44197;SDS011;30157;55.512;37.764;2023-03-14T01:31:40;4.00;;;2.08;;
44197;SDS011;30157;55.512;37.764;2023-03-14T01:34:06;3.90;;;2.17;;
44197;SDS011;30157;55.512;37.764;2023-03-14T01:36:32;3.80;;;2.00;;
44197;SDS011;30157;55.512;37.764;2023-03-14T01:39:00;4.25;;;2.20;;
44197;SDS011;30157;55.512;37.764;2023-03-14T01:41:26;4.38;;;2.50;;
44197;SDS011;30157;55.512;37.764;2023-03-14T01:43:54;3.78;;;1.75;;
44197;SDS011;30157;55.512;37.764;2023-03-14T01:46:21;3.35;;;1.95;;
44197;SDS011;30157;55.512;37.764;2023-03-14T01:48:55;6.80;;;2.50;;
44197;SDS011;30157;55.512;37.764;2023-03-14T01:51:29;6.15;;;2.90;;
44197;SDS011;30157;55.512;37.764;2023-03-14T01:54:02;3.63;;;2.05;;
44197;SDS011;30157;55.512;37.764;2023-03-14T01:56:36;4.28;;;2.45;;
44197;SDS011;30157;55.512;37.764;2023-03-14T01:59:04;4.03;;;2.25;;
44197;SDS011;30157;55.512;37.764;2023-03-14T02:01:33;5.05;;;2.50;;
44197;SDS011;30157;55.512;37.764;2023-03-14T02:04:01;7.18;;;2.80;;
44197;SDS011;30157;55.512;37.764;2023-03-14T02:06:37;5.40;;;2.75;;
44197;SDS011;30157;55.512;37.764;2023-03-14T02:09:10;5.18;;;2.45;;
44197;SDS011;30157;55.512;37.764;2023-03-14T02:11:36;4.88;;;2.92;;
44197;SDS011;30157;55.512;37.764;2023-03-14T02:14:06;6.63;;;3.65;;
44197;SDS011;30157;55.512;37.764;2023-03-14T02:17:00;8.30;;;3.28;;
44197;SDS011;30157;55.512;37.764;2023-03-14T02:22:42;6.53;;;3.38;;
44197;SDS011;30157;55.512;37.764;2023-03-14T02:25:16;6.53;;;3.70;;
44197;SDS011;30157;55.512;37.764;2023-03-14T02:28:01;8.90;;;4.35;;
44197;SDS011;30157;55.512;37.764;2023-03-14T02:30:29;7.60;;;3.45;;
44197;SDS011;30157;55.512;37.764;2023-03-14T02:32:58;9.65;;;3.72;;
44197;SDS011;30157;55.512;37.764;2023-03-14T02:35:29;9.90;;;3.15;;
44197;SDS011;30157;55.512;37.764;2023-03-14T02:38:06;5.30;;;3.10;;
44197;SDS011;30157;55.512;37.764;2023-03-14T02:40:48;12.07;;;4.55;;
44197;SDS011;30157;55.512;37.764;2023-03-14T02:43:14;7.13;;;3.72;;
44197;SDS011;30157;55.512;37.764;2023-03-14T02:45:46;7.47;;;3.67;;
44197;SDS011;30157;55.512;37.764;2023-03-14T02:48:27;11.02;;;4.82;;
44197;SDS011;30157;55.512;37.764;2023-03-14T02:50:56;12.75;;;4.68;;
44197;SDS011;30157;55.512;37.764;2023-03-14T02:53:25;33.00;;;5.78;;
44197;SDS011;30157;55.512;37.764;2023-03-14T02:55:55;12.45;;;5.78;;
44197;SDS011;30157;55.512;37.764;2023-03-14T02:58:22;10.98;;;5.00;;
44197;SDS011;30157;55.512;37.764;2023-03-14T03:00:55;7.45;;;3.50;;
44197;SDS011;30157;55.512;37.764;2023-03-14T03:03:22;14.98;;;6.15;;
44197;SDS011;30157;55.512;37.764;2023-03-14T03:05:48;15.15;;;7.07;;
44197;SDS011;30157;55.512;37.764;2023-03-14T03:08:19;13.60;;;6.35;;
44197;SDS011;30157;55.512;37.764;2023-03-14T03:10:46;11.18;;;5.30;;
44197;SDS011;30157;55.512;37.764;2023-03-14T03:13:12;13.35;;;6.75;;
44197;SDS011;30157;55.512;37.764;2023-03-14T03:15:39;14.18;;;7.18;;
44197;SDS011;30157;55.512;37.764;2023-03-14T03:18:06;12.20;;;5.68;;
44197;SDS011;30157;55.512;37.764;2023-03-14T03:20:32;15.45;;;7.13;;
44197;SDS011;30157;55.512;37.764;2023-03-14T03:22:58;17.40;;;7.40;;
44197;SDS011;30157;55.512;37.764;2023-03-14T03:25:25;14.35;;;6.50;;
44197;SDS011;30157;55.512;37.764;2023-03-14T03:27:51;14.13;;;6.93;;
44197;SDS011;30157;55.512;37.764;2023-03-14T03:30:20;16.10;;;8.13;;
44197;SDS011;30157;55.512;37.764;2023-03-14T03:32:47;27.92;;;7.82;;
44197;SDS011;30157;55.512;37.764;2023-03-14T03:35:13;13.93;;;6.97;;
44197;SDS011;30157;55.512;37.764;2023-03-14T03:37:40;15.85;;;7.82;;
44197;SDS011;30157;55.512;37.764;2023-03-14T03:40:06;12.75;;;6.47;;
44197;SDS011;30157;55.512;37.764;2023-03-14T03:42:35;17.88;;;7.70;;
44197;SDS011;30157;55.512;37.764;2023-03-14T03:45:02;16.98;;;8.23;;
44197;SDS011;30157;55.512;37.764;2023-03-14T03:47:31;13.18;;;7.10;;
44197;SDS011;30157;55.512;37.764;2023-03-14T03:49:57;14.25;;;7.45;;
44197;SDS011;30157;55.512;37.764;2023-03-14T03:52:22;11.70;;;6.50;;
44197;SDS011;30157;55.512;37.764;2023-03-14T03:54:48;10.48;;;5.00;;
44197;SDS011;30157;55.512;37.764;2023-03-14T03:57:14;11.93;;;5.25;;
44197;SDS011;30157;55.512;37.764;2023-03-14T03:59:39;9.32;;;4.60;;
44197;SDS011;30157;55.512;37.764;2023-03-14T04:02:07;10.13;;;4.82;;
44197;SDS011;30157;55.512;37.764;2023-03-14T04:04:33;14.13;;;4.85;;
44197;SDS011;30157;55.512;37.764;2023-03-14T04:07:01;10.10;;;5.28;;
44197;SDS011;30157;55.512;37.764;2023-03-14T04:09:26;13.35;;;6.18;;
44197;SDS011;30157;55.512;37.764;2023-03-14T04:12:15;17.67;;;6.18;;
44197;SDS011;30157;55.512;37.764;2023-03-14T04:14:53;15.30;;;6.28;;
44197;SDS011;30157;55.512;37.764;2023-03-14T04:17:21;17.60;;;6.57;;
44197;SDS011;30157;55.512;37.764;2023-03-14T04:19:46;13.02;;;5.90;;
44197;SDS011;30157;55.512;37.764;2023-03-14T04:22:15;12.02;;;5.75;;
44197;SDS011;30157;55.512;37.764;2023-03-14T04:24:47;12.90;;;5.90;;
44197;SDS011;30157;55.512;37.764;2023-03-14T04:27:13;10.52;;;5.30;;
44197;SDS011;30157;55.512;37.764;2023-03-14T04:29:41;12.90;;;5.88;;
44197;SDS011;30157;55.512;37.764;2023-03-14T04:32:08;13.45;;;6.72;;
44197;SDS011;30157;55.512;37.764;2023-03-14T04:34:36;13.25;;;5.47;;
44197;SDS011;30157;55.512;37.764;2023-03-14T04:37:03;12.82;;;5.55;;
44197;SDS011;30157;55.512;37.764;2023-03-14T04:39:34;14.55;;;5.88;;
44197;SDS011;30157;55.512;37.764;2023-03-14T04:44:46;10.15;;;5.38;;
44197;SDS011;30157;55.512;37.764;2023-03-14T04:47:14;11.73;;;5.13;;
44197;SDS011;30157;55.512;37.764;2023-03-14T04:49:41;9.23;;;5.00;;
44197;SDS011;30157;55.512;37.764;2023-03-14T04:52:10;10.93;;;6.22;;
44197;SDS011;30157;55.512;37.764;2023-03-14T04:54:37;16.50;;;6.68;;
44197;SDS011;30157;55.512;37.764;2023-03-14T04:57:03;12.50;;;5.95;;
44197;SDS011;30157;55.512;37.764;2023-03-14T04:59:31;10.80;;;5.30;;
44197;SDS011;30157;55.512;37.764;2023-03-14T05:02:04;12.65;;;5.95;;
44197;SDS011;30157;55.512;37.764;2023-03-14T05:04:48;11.80;;;5.45;;
44197;SDS011;30157;55.512;37.764;2023-03-14T05:07:13;10.77;;;5.13;;
44197;SDS011;30157;55.512;37.764;2023-03-14T05:09:50;13.43;;;5.88;;
44197;SDS011;30157;55.512;37.764;2023-03-14T05:12:34;8.73;;;4.20;;
44197;SDS011;30157;55.512;37.764;2023-03-14T05:15:32;8.45;;;5.00;;
44197;SDS011;30157;55.512;37.764;2023-03-14T05:18:29;8.15;;;3.95;;
44197;SDS011;30157;55.512;37.764;2023-03-14T05:21:15;9.57;;;5.03;;
44197;SDS011;30157;55.512;37.764;2023-03-14T05:24:02;11.25;;;4.85;;
44197;SDS011;30157;55.512;37.764;2023-03-14T05:26:42;10.63;;;5.68;;
44197;SDS011;30157;55.512;37.764;2023-03-14T05:29:26;6.50;;;4.47;;
44197;SDS011;30157;55.512;37.764;2023-03-14T05:32:17;7.40;;;4.22;;
44197;SDS011;30157;55.512;37.764;2023-03-14T05:35:06;6.88;;;3.88;;
44197;SDS011;30157;55.512;37.764;2023-03-14T05:38:04;7.63;;;4.43;;
44197;SDS011;30157;55.512;37.764;2023-03-14T05:40:33;8.15;;;4.35;;
44197;SDS011;30157;55.512;37.764;2023-03-14T05:43:18;4.70;;;3.28;;
44197;SDS011;30157;55.512;37.764;2023-03-14T05:46:02;8.77;;;4.32;;
44197;SDS011;30157;55.512;37.764;2023-03-14T05:48:28;7.85;;;4.15;;
44197;SDS011;30157;55.512;37.764;2023-03-14T05:51:16;8.18;;;4.00;;
44197;SDS011;30157;55.512;37.764;2023-03-14T05:53:51;6.55;;;3.10;;
44197;SDS011;30157;55.512;37.764;2023-03-14T05:56:49;9.40;;;4.35;;
44197;SDS011;30157;55.512;37.764;2023-03-14T05:59:32;6.15;;;3.80;;
44197;SDS011;30157;55.512;37.764;2023-03-14T06:02:24;6.53;;;4.00;;
44197;SDS011;30157;55.512;37.764;2023-03-14T06:04:59;5.40;;;3.33;;
44197;SDS011;30157;55.512;37.764;2023-03-14T06:07:25;6.95;;;3.20;;
44197;SDS011;30157;55.512;37.764;2023-03-14T06:09:51;11.05;;;3.80;;
44197;SDS011;30157;55.512;37.764;2023-03-14T06:12:18;5.03;;;3.38;;
44197;SDS011;30157;55.512;37.764;2023-03-14T06:14:45;5.18;;;3.13;;
44197;SDS011;30157;55.512;37.764;2023-03-14T06:17:11;7.43;;;3.15;;
44197;SDS011;30157;55.512;37.764;2023-03-14T06:19:45;5.45;;;3.33;;
44197;SDS011;30157;55.512;37.764;2023-03-14T06:22:12;7.50;;;3.38;;
44197;SDS011;30157;55.512;37.764;2023-03-14T06:24:39;7.45;;;3.25;;
44197;SDS011;30157;55.512;37.764;2023-03-14T06:27:05;7.78;;;3.53;;
44197;SDS011;30157;55.512;37.764;2023-03-14T06:29:30;7.05;;;3.10;;
44197;SDS011;30157;55.512;37.764;2023-03-14T06:31:56;5.28;;;2.90;;
44197;SDS011;30157;55.512;37.764;2023-03-14T06:34:22;5.68;;;3.15;;
44197;SDS011;30157;55.512;37.764;2023-03-14T06:36:48;4.82;;;3.17;;
44197;SDS011;30157;55.512;37.764;2023-03-14T06:39:15;7.47;;;3.08;;
44197;SDS011;30157;55.512;37.764;2023-03-14T06:41:45;5.00;;;2.45;;
44197;SDS011;30157;55.512;37.764;2023-03-14T06:44:11;8.77;;;4.05;;
44197;SDS011;30157;55.512;37.764;2023-03-14T06:46:37;5.38;;;3.03;;
44197;SDS011;30157;55.512;37.764;2023-03-14T06:49:03;7.47;;;3.00;;
44197;SDS011;30157;55.512;37.764;2023-03-14T06:51:31;5.28;;;2.38;;
44197;SDS011;30157;55.512;37.764;2023-03-14T06:53:59;5.20;;;2.88;;
44197;SDS011;30157;55.512;37.764;2023-03-14T06:56:27;4.95;;;3.15;;
44197;SDS011;30157;55.512;37.764;2023-03-14T06:58:54;3.95;;;2.60;;
44197;SDS011;30157;55.512;37.764;2023-03-14T07:01:24;7.53;;;3.47;;
44197;SDS011;30157;55.512;37.764;2023-03-14T07:03:59;6.07;;;3.47;;
44197;SDS011;30157;55.512;37.764;2023-03-14T07:06:25;5.88;;;3.10;;
44197;SDS011;30157;55.512;37.764;2023-03-14T07:08:52;3.97;;;2.53;;
44197;SDS011;30157;55.512;37.764;2023-03-14T07:11:23;5.32;;;3.10;;
44197;SDS011;30157;55.512;37.764;2023-03-14T07:13:49;5.88;;;3.08;;
44197;SDS011;30157;55.512;37.764;2023-03-14T07:16:15;4.68;;;2.97;;
44197;SDS011;30157;55.512;37.764;2023-03-14T07:18:41;6.28;;;2.78;;
44197;SDS011;30157;55.512;37.764;2023-03-14T07:21:07;5.60;;;2.85;;
44197;SDS011;30157;55.512;37.764;2023-03-14T07:23:35;5.97;;;2.97;;
44197;SDS011;30157;55.512;37.764;2023-03-14T07:26:01;5.07;;;3.03;;
44197;SDS011;30157;55.512;37.764;2023-03-14T07:28:29;6.25;;;2.78;;
44197;SDS011;30157;55.512;37.764;2023-03-14T07:31:00;7.05;;;3.63;;
44197;SDS011;30157;55.512;37.764;2023-03-14T07:33:30;5.95;;;2.78;;
44197;SDS011;30157;55.512;37.764;2023-03-14T07:35:56;5.05;;;2.80;;
44197;SDS011;30157;55.512;37.764;2023-03-14T07:38:22;4.80;;;2.80;;
44197;SDS011;30157;55.512;37.764;2023-03-14T07:41:11;5.18;;;3.17;;
44197;SDS011;30157;55.512;37.764;2023-03-14T07:43:44;6.93;;;3.17;;
44197;SDS011;30157;55.512;37.764;2023-03-14T07:46:10;5.00;;;3.03;;
44197;SDS011;30157;55.512;37.764;2023-03-14T07:48:37;7.82;;;3.20;;
44197;SDS011;30157;55.512;37.764;2023-03-14T07:51:04;8.13;;;3.45;;
44197;SDS011;30157;55.512;37.764;2023-03-14T07:53:30;6.28;;;3.20;;
44197;SDS011;30157;55.512;37.764;2023-03-14T07:55:56;6.45;;;3.38;;
44197;SDS011;30157;55.512;37.764;2023-03-14T07:58:23;6.22;;;3.17;;
44197;SDS011;30157;55.512;37.764;2023-03-14T08:00:49;6.10;;;2.90;;
44197;SDS011;30157;55.512;37.764;2023-03-14T08:03:16;4.47;;;2.72;;
44197;SDS011;30157;55.512;37.764;2023-03-14T08:05:42;5.50;;;2.90;;
44197;SDS011;30157;55.512;37.764;2023-03-14T08:08:08;7.30;;;3.13;;
44197;SDS011;30157;55.512;37.764;2023-03-14T08:10:34;5.82;;;3.13;;
44197;SDS011;30157;55.512;37.764;2023-03-14T08:13:00;6.38;;;3.17;;
44197;SDS011;30157;55.512;37.764;2023-03-14T08:15:29;5.40;;;3.10;;
44197;SDS011;30157;55.512;37.764;2023-03-14T08:17:56;5.70;;;3.25;;
44197;SDS011;30157;55.512;37.764;2023-03-14T08:20:22;4.25;;;3.20;;
44197;SDS011;30157;55.512;37.764;2023-03-14T08:22:54;5.00;;;2.88;;
44197;SDS011;30157;55.512;37.764;2023-03-14T08:25:25;6.72;;;3.65;;
44197;SDS011;30157;55.512;37.764;2023-03-14T08:27:52;7.18;;;3.00;;
44197;SDS011;30157;55.512;37.764;2023-03-14T08:30:19;6.88;;;3.30;;
44197;SDS011;30157;55.512;37.764;2023-03-14T08:32:45;5.18;;;2.97;;
44197;SDS011;30157;55.512;37.764;2023-03-14T08:35:12;7.43;;;3.45;;
44197;SDS011;30157;55.512;37.764;2023-03-14T08:37:38;6.32;;;2.80;;
44197;SDS011;30157;55.512;37.764;2023-03-14T08:40:04;4.57;;;2.42;;
44197;SDS011;30157;55.512;37.764;2023-03-14T08:42:35;4.10;;;2.83;;
44197;SDS011;30157;55.512;37.764;2023-03-14T08:45:01;4.55;;;3.13;;
44197;SDS011;30157;55.512;37.764;2023-03-14T08:47:29;5.22;;;3.17;;
44197;SDS011;30157;55.512;37.764;2023-03-14T08:49:55;3.42;;;2.63;;
44197;SDS011;30157;55.512;37.764;2023-03-14T08:52:20;5.13;;;3.28;;
44197;SDS011;30157;55.512;37.764;2023-03-14T08:54:46;5.30;;;3.10;;
44197;SDS011;30157;55.512;37.764;2023-03-14T08:57:12;6.32;;;3.28;;
44197;SDS011;30157;55.512;37.764;2023-03-14T08:59:38;6.88;;;3.42;;
44197;SDS011;30157;55.512;37.764;2023-03-14T09:02:04;5.68;;;3.33;;
44197;SDS011;30157;55.512;37.764;2023-03-14T09:04:30;5.78;;;3.20;;
44197;SDS011;30157;55.512;37.764;2023-03-14T09:06:57;5.75;;;3.58;;
44197;SDS011;30157;55.512;37.764;2023-03-14T09:09:24;6.25;;;2.95;;
44197;SDS011;30157;55.512;37.764;2023-03-14T09:11:50;8.20;;;3.28;;
44197;SDS011;30157;55.512;37.764;2023-03-14T09:14:15;5.75;;;3.25;;
44197;SDS011;30157;55.512;37.764;2023-03-14T09:16:41;6.88;;;3.45;;
44197;SDS011;30157;55.512;37.764;2023-03-14T09:19:07;5.97;;;3.13;;
44197;SDS011;30157;55.512;37.764;2023-03-14T09:21:32;5.13;;;2.78;;
44197;SDS011;30157;55.512;37.764;2023-03-14T09:23:58;5.70;;;3.20;;
44197;SDS011;30157;55.512;37.764;2023-03-14T09:26:24;7.18;;;3.20;;
44197;SDS011;30157;55.512;37.764;2023-03-14T09:28:49;6.07;;;3.03;;
44197;SDS011;30157;55.512;37.764;2023-03-14T09:31:15;5.07;;;3.15;;
44197;SDS011;30157;55.512;37.764;2023-03-14T09:33:43;6.22;;;3.10;;
44197;SDS011;30157;55.512;37.764;2023-03-14T09:36:10;4.75;;;3.15;;
44197;SDS011;30157;55.512;37.764;2023-03-14T09:38:36;5.43;;;3.50;;
44197;SDS011;30157;55.512;37.764;2023-03-14T09:41:02;6.00;;;3.50;;
44197;SDS011;30157;55.512;37.764;2023-03-14T09:43:37;7.53;;;3.78;;
44197;SDS011;30157;55.512;37.764;2023-03-14T09:46:04;6.32;;;3.45;;
44197;SDS011;30157;55.512;37.764;2023-03-14T09:48:32;8.60;;;3.60;;
44197;SDS011;30157;55.512;37.764;2023-03-14T09:50:59;6.32;;;3.15;;
44197;SDS011;30157;55.512;37.764;2023-03-14T09:53:48;4.75;;;3.10;;
44197;SDS011;30157;55.512;37.764;2023-03-14T09:56:22;6.40;;;2.80;;
44197;SDS011;30157;55.512;37.764;2023-03-14T09:58:52;8.00;;;2.75;;
44197;SDS011;30157;55.512;37.764;2023-03-14T10:01:26;5.90;;;3.50;;
44197;SDS011;30157;55.512;37.764;2023-03-14T10:03:55;7.03;;;3.20;;
44197;SDS011;30157;55.512;37.764;2023-03-14T10:06:23;6.95;;;3.42;;
44197;SDS011;30157;55.512;37.764;2023-03-14T10:08:54;5.90;;;3.55;;
44197;SDS011;30157;55.512;37.764;2023-03-14T10:11:22;5.57;;;2.97;;
44197;SDS011;30157;55.512;37.764;2023-03-14T10:14:10;6.43;;;3.40;;
44197;SDS011;30157;55.512;37.764;2023-03-14T10:16:44;5.30;;;3.38;;
44197;SDS011;30157;55.512;37.764;2023-03-14T10:19:12;6.38;;;3.63;;
44197;SDS011;30157;55.512;37.764;2023-03-14T10:21:40;6.18;;;3.38;;
44197;SDS011;30157;55.512;37.764;2023-03-14T10:24:09;5.65;;;3.50;;
44197;SDS011;30157;55.512;37.764;2023-03-14T10:26:36;6.90;;;3.55;;
44197;SDS011;30157;55.512;37.764;2023-03-14T10:29:11;6.30;;;3.80;;
44197;SDS011;30157;55.512;37.764;2023-03-14T10:31:48;9.18;;;3.70;;
44197;SDS011;30157;55.512;37.764;2023-03-14T10:34:26;4.90;;;3.45;;
44197;SDS011;30157;55.512;37.764;2023-03-14T10:37:21;5.90;;;3.78;;
44197;SDS011;30157;55.512;37.764;2023-03-14T10:39:54;5.85;;;3.30;;
44197;SDS011;30157;55.512;37.764;2023-03-14T10:42:25;8.55;;;3.30;;
44197;SDS011;30157;55.512;37.764;2023-03-14T10:45:00;6.50;;;3.33;;
44197;SDS011;30157;55.512;37.764;2023-03-14T10:47:32;6.50;;;3.53;;
44197;SDS011;30157;55.512;37.764;2023-03-14T10:50:19;8.98;;;3.95;;
44197;SDS011;30157;55.512;37.764;2023-03-14T10:52:49;8.88;;;3.70;;
44197;SDS011;30157;55.512;37.764;2023-03-14T10:55:17;6.18;;;3.50;;
44197;SDS011;30157;55.512;37.764;2023-03-14T10:57:43;5.85;;;3.63;;
44197;SDS011;30157;55.512;37.764;2023-03-14T11:00:16;4.90;;;3.45;;
44197;SDS011;30157;55.512;37.764;2023-03-14T11:05:59;5.07;;;3.35;;
44197;SDS011;30157;55.512;37.764;2023-03-14T11:08:45;6.97;;;3.63;;
44197;SDS011;30157;55.512;37.764;2023-03-14T11:11:29;5.13;;;3.40;;
44197;SDS011;30157;55.512;37.764;2023-03-14T11:19:13;7.32;;;4.07;;
44197;SDS011;30157;55.512;37.764;2023-03-14T11:24:41;8.95;;;3.70;;
44197;SDS011;30157;55.512;37.764;2023-03-14T11:27:21;7.40;;;3.85;;
44197;SDS011;30157;55.512;37.764;2023-03-14T11:37:58;5.90;;;3.78;;
44197;SDS011;30157;55.512;37.764;2023-03-14T11:40:26;7.40;;;4.03;;
44197;SDS011;30157;55.512;37.764;2023-03-14T11:43:06;6.57;;;3.88;;
44197;SDS011;30157;55.512;37.764;2023-03-14T11:45:52;10.48;;;3.80;;
44197;SDS011;30157;55.512;37.764;2023-03-14T11:51:15;5.45;;;3.78;;
44197;SDS011;30157;55.512;37.764;2023-03-14T11:56:52;6.20;;;4.15;;
44197;SDS011;30157;55.512;37.764;2023-03-14T11:59:23;6.95;;;3.72;;
44197;SDS011;30157;55.512;37.764;2023-03-14T12:04:26;8.35;;;4.30;;
44197;SDS011;30157;55.512;37.764;2023-03-14T12:07:11;8.57;;;4.75;;
44197;SDS011;30157;55.512;37.764;2023-03-14T12:09:43;7.13;;;3.70;;
44197;SDS011;30157;55.512;37.764;2023-03-14T12:12:12;8.50;;;4.32;;
44197;SDS011;30157;55.512;37.764;2023-03-14T12:14:46;8.27;;;3.90;;
44197;SDS011;30157;55.512;37.764;2023-03-14T12:17:20;6.97;;;3.90;;
44197;SDS011;30157;55.512;37.764;2023-03-14T12:22:46;6.30;;;3.80;;
44197;SDS011;30157;55.512;37.764;2023-03-14T12:27:45;7.88;;;4.10;;
44197;SDS011;30157;55.512;37.764;2023-03-14T12:30:16;6.07;;;3.63;;
44197;SDS011;30157;55.512;37.764;2023-03-14T12:35:36;7.38;;;3.70;;
44197;SDS011;30157;55.512;37.764;2023-03-14T12:43:45;6.57;;;3.80;;
44197;SDS011;30157;55.512;37.764;2023-03-14T12:48:42;6.60;;;3.95;;
44197;SDS011;30157;55.512;37.764;2023-03-14T12:51:14;6.93;;;3.80;;
44197;SDS011;30157;55.512;37.764;2023-03-14T12:59:15;8.82;;;4.32;;
44197;SDS011;30157;55.512;37.764;2023-03-14T13:01:47;8.32;;;4.65;;
44197;SDS011;30157;55.512;37.764;2023-03-14T13:04:29;7.15;;;4.25;;
44197;SDS011;30157;55.512;37.764;2023-03-14T13:06:59;6.30;;;3.90;;
44197;SDS011;30157;55.512;37.764;2023-03-14T13:12:00;5.97;;;3.67;;
44197;SDS011;30157;55.512;37.764;2023-03-14T13:14:40;6.53;;;4.35;;
44197;SDS011;30157;55.512;37.764;2023-03-14T13:17:10;8.35;;;4.70;;
44197;SDS011;30157;55.512;37.764;2023-03-14T13:19:37;5.70;;;4.32;;
44197;SDS011;30157;55.512;37.764;2023-03-14T13:22:05;5.82;;;3.65;;
44197;SDS011;30157;55.512;37.764;2023-03-14T13:24:41;6.97;;;4.10;;
44197;SDS011;30157;55.512;37.764;2023-03-14T13:27:16;5.85;;;4.10;;
44197;SDS011;30157;55.512;37.764;2023-03-14T13:29:47;6.40;;;3.80;;
44197;SDS011;30157;55.512;37.764;2023-03-14T13:32:21;8.90;;;3.80;;
44197;SDS011;30157;55.512;37.764;2023-03-14T13:34:51;5.63;;;3.67;;
44197;SDS011;30157;55.512;37.764;2023-03-14T13:37:21;6.65;;;4.10;;
44197;SDS011;30157;55.512;37.764;2023-03-14T13:39:55;5.85;;;3.60;;
44197;SDS011;30157;55.512;37.764;2023-03-14T13:42:27;7.73;;;3.83;;
44197;SDS011;30157;55.512;37.764;2023-03-14T13:44:54;6.80;;;3.88;;
44197;SDS011;30157;55.512;37.764;2023-03-14T13:47:23;7.32;;;4.13;;
44197;SDS011;30157;55.512;37.764;2023-03-14T13:49:50;8.77;;;4.53;;
44197;SDS011;30157;55.512;37.764;2023-03-14T13:52:30;7.22;;;4.25;;
44197;SDS011;30157;55.512;37.764;2023-03-14T13:54:56;7.72;;;4.40;;
44197;SDS011;30157;55.512;37.764;2023-03-14T13:57:24;6.93;;;3.97;;
44197;SDS011;30157;55.512;37.764;2023-03-14T14:00:06;6.53;;;3.58;;
44197;SDS011;30157;55.512;37.764;2023-03-14T14:02:36;5.47;;;3.67;;
44197;SDS011;30157;55.512;37.764;2023-03-14T14:05:04;6.20;;;3.65;;
44197;SDS011;30157;55.512;37.764;2023-03-14T14:07:30;6.00;;;3.53;;
44197;SDS011;30157;55.512;37.764;2023-03-14T14:09:56;5.78;;;3.92;;
44197;SDS011;30157;55.512;37.764;2023-03-14T14:12:32;6.00;;;3.58;;
44197;SDS011;30157;55.512;37.764;2023-03-14T14:15:10;7.70;;;3.58;;
44197;SDS011;30157;55.512;37.764;2023-03-14T14:17:44;6.03;;;3.45;;
44197;SDS011;30157;55.512;37.764;2023-03-14T14:20:17;6.70;;;3.42;;
44197;SDS011;30157;55.512;37.764;2023-03-14T14:22:46;5.35;;;3.58;;
44197;SDS011;30157;55.512;37.764;2023-03-14T14:25:13;6.10;;;3.63;;
44197;SDS011;30157;55.512;37.764;2023-03-14T14:27:44;6.78;;;3.60;;
44197;SDS011;30157;55.512;37.764;2023-03-14T14:32:42;8.38;;;4.28;;
44197;SDS011;30157;55.512;37.764;2023-03-14T14:35:09;9.00;;;4.32;;
44197;SDS011;30157;55.512;37.764;2023-03-14T14:37:46;6.68;;;4.05;;
44197;SDS011;30157;55.512;37.764;2023-03-14T14:40:27;9.93;;;4.20;;
44197;SDS011;30157;55.512;37.764;2023-03-14T14:42:54;6.10;;;3.95;;
44197;SDS011;30157;55.512;37.764;2023-03-14T14:45:23;7.72;;;4.25;;
44197;SDS011;30157;55.512;37.764;2023-03-14T14:47:53;6.05;;;3.70;;
44197;SDS011;30157;55.512;37.764;2023-03-14T14:50:31;8.00;;;3.90;;
44197;SDS011;30157;55.512;37.764;2023-03-14T14:52:59;7.55;;;4.03;;
44197;SDS011;30157;55.512;37.764;2023-03-14T14:55:48;6.68;;;3.88;;
44197;SDS011;30157;55.512;37.764;2023-03-14T14:58:27;9.20;;;4.20;;
44197;SDS011;30157;55.512;37.764;2023-03-14T15:03:32;6.38;;;4.03;;
44197;SDS011;30157;55.512;37.764;2023-03-14T15:05:59;10.75;;;5.32;;
44197;SDS011;30157;55.512;37.764;2023-03-14T15:08:27;9.30;;;4.10;;
44197;SDS011;30157;55.512;37.764;2023-03-14T15:10:53;10.80;;;4.90;;
44197;SDS011;30157;55.512;37.764;2023-03-14T15:13:20;9.55;;;4.30;;
44197;SDS011;30157;55.512;37.764;2023-03-14T15:15:46;7.57;;;4.18;;
44197;SDS011;30157;55.512;37.764;2023-03-14T15:18:13;10.80;;;4.10;;
44197;SDS011;30157;55.512;37.764;2023-03-14T15:20:40;8.05;;;4.68;;
44197;SDS011;30157;55.512;37.764;2023-03-14T15:23:10;8.20;;;4.32;;
44197;SDS011;30157;55.512;37.764;2023-03-14T15:25:37;7.22;;;4.35;;
44197;SDS011;30157;55.512;37.764;2023-03-14T15:30:50;7.90;;;3.95;;
44197;SDS011;30157;55.512;37.764;2023-03-14T15:33:18;6.85;;;4.15;;
44197;SDS011;30157;55.512;37.764;2023-03-14T15:35:45;8.60;;;4.13;;
44197;SDS011;30157;55.512;37.764;2023-03-14T15:38:13;7.70;;;4.10;;
44197;SDS011;30157;55.512;37.764;2023-03-14T15:40:41;6.88;;;3.80;;
44197;SDS011;30157;55.512;37.764;2023-03-14T15:43:07;6.45;;;3.83;;
44197;SDS011;30157;55.512;37.764;2023-03-14T15:45:34;7.78;;;4.50;;
44197;SDS011;30157;55.512;37.764;2023-03-14T15:48:00;10.70;;;4.00;;
44197;SDS011;30157;55.512;37.764;2023-03-14T15:50:26;9.75;;;4.78;;
44197;SDS011;30157;55.512;37.764;2023-03-14T15:52:52;6.60;;;3.63;;
44197;SDS011;30157;55.512;37.764;2023-03-14T15:55:18;7.15;;;4.38;;
44197;SDS011;30157;55.512;37.764;2023-03-14T15:57:44;7.72;;;4.72;;